Smithfield, Missouri
Current Conditions -  °F | °C
As of 6:53 PM on Tuesday 21 Oct 2014 (Local Time) from KJLN Reporting Station
Clear Clear  
Wind Chill: 66°   Ceiling: Unl
Heat Index: 66°   Visibility: 10mi
Dew Point: 48°   Wind: 5mph
Humidity: 52%   Direction: 50°NE
Pressure: 30.07"   Gusts: NA
Location:  37.2082°N, 94.5634°W
Report Text: KJLN 212353Z 05004KT 10SM CLR 19/09 A3007 RMK AO2 SLP177 T01890089 10244 20189 55003
Loading
Personal Weather Stations






























Interactive Weather Map
Tropical Storm Tracking
New forecast layout! Learn more

10-Day Weather Forecast

Advertisements
Track Severe Weather on mobile